createdAt,value
2022-10-20T00:00:15.455Z,7.37
2022-10-20T00:01:15.395Z,7.32
2022-10-20T00:02:15.432Z,7.26
2022-10-20T00:03:15.375Z,7.22
2022-10-20T00:04:15.335Z,7.16
2022-10-20T00:05:15.321Z,7.12
2022-10-20T00:06:15.398Z,7.12
2022-10-20T00:07:15.302Z,7.08
2022-10-20T00:08:15.307Z,7.08
2022-10-20T00:09:15.326Z,7.07
2022-10-20T00:10:15.254Z,7.13
2022-10-20T00:11:15.337Z,7.16
2022-10-20T00:12:15.264Z,7.17
2022-10-20T00:13:15.257Z,7.17
2022-10-20T00:15:36.676Z,7.29
2022-10-20T00:16:36.695Z,7.27
2022-10-20T00:17:36.666Z,7.31
2022-10-20T00:18:36.678Z,7.37
2022-10-20T00:19:36.616Z,7.44
2022-10-20T00:20:37.616Z,7.55
2022-10-20T00:21:36.637Z,7.71
2022-10-20T00:22:36.769Z,7.81
2022-10-20T00:23:36.618Z,7.90
2022-10-20T00:24:36.616Z,7.94
2022-10-20T00:25:36.536Z,8.03
2022-10-20T00:26:36.566Z,8.03
2022-10-20T00:27:36.540Z,8.07
2022-10-20T00:28:36.496Z,8.11
2022-10-20T00:29:36.487Z,8.15
2022-10-20T00:30:36.476Z,8.18
2022-10-20T00:31:36.498Z,8.21
2022-10-20T00:32:36.841Z,8.18
2022-10-20T00:33:36.443Z,8.11
2022-10-20T00:34:36.490Z,8.08
2022-10-20T00:35:36.418Z,8.03
2022-10-20T00:36:36.409Z,7.96
2022-10-20T00:37:36.398Z,7.87
2022-10-20T00:38:36.409Z,7.77
2022-10-20T00:39:36.368Z,7.74
2022-10-20T00:40:36.419Z,7.69
2022-10-20T00:41:36.359Z,7.66
2022-10-20T00:42:36.526Z,7.63
2022-10-20T00:43:36.348Z,7.62
2022-10-20T00:44:36.349Z,7.60
2022-10-20T00:45:36.357Z,7.62
2022-10-20T00:46:36.283Z,7.67
2022-10-20T00:47:36.416Z,7.75
2022-10-20T00:48:36.271Z,7.90
2022-10-20T00:49:36.280Z,7.99
2022-10-20T00:50:36.289Z,8.04
2022-10-20T00:51:36.219Z,8.08
2022-10-20T00:52:36.636Z,8.10
2022-10-20T00:53:36.200Z,8.07
2022-10-20T00:55:46.401Z,8.04
2022-10-20T00:56:46.385Z,8.03
2022-10-20T00:57:46.471Z,7.97
2022-10-20T00:58:46.371Z,7.92
2022-10-20T00:59:46.383Z,7.85
2022-10-20T01:00:48.361Z,7.81
2022-10-20T01:01:46.362Z,7.77
2022-10-20T01:02:46.399Z,7.74
2022-10-20T01:03:46.311Z,7.69
2022-10-20T01:04:46.322Z,7.62
2022-10-20T01:05:47.342Z,7.55
2022-10-20T01:06:46.272Z,7.49
2022-10-20T01:07:46.355Z,7.42
2022-10-20T01:08:46.299Z,7.37
2022-10-20T01:09:46.252Z,7.31
2022-10-20T01:10:46.251Z,7.29
2022-10-20T01:11:46.304Z,7.24
2022-10-20T01:12:46.173Z,7.20
2022-10-20T01:13:46.173Z,7.17
2022-10-20T01:14:46.190Z,7.13
2022-10-20T01:15:46.198Z,7.08
2022-10-20T01:16:46.228Z,7.04
2022-10-20T01:17:46.115Z,6.99
2022-10-20T01:18:46.116Z,6.94
2022-10-20T01:19:46.113Z,6.94
2022-10-20T01:20:46.122Z,6.91
2022-10-20T01:21:46.155Z,6.89
2022-10-20T01:22:46.134Z,6.91
2022-10-20T01:24:56.266Z,6.95
2022-10-20T01:25:56.287Z,6.91
2022-10-20T01:26:56.328Z,6.89
2022-10-20T01:27:56.308Z,6.86
2022-10-20T01:28:56.308Z,6.81
2022-10-20T01:29:56.218Z,6.77
2022-10-20T01:30:56.188Z,6.73
2022-10-20T01:31:56.285Z,6.69
2022-10-20T01:32:56.157Z,6.65
2022-10-20T01:33:56.243Z,6.62
2022-10-20T01:34:56.142Z,6.59
2022-10-20T01:35:56.160Z,6.59
2022-10-20T01:36:56.198Z,6.54
2022-10-20T01:37:56.448Z,6.51
2022-10-20T01:38:56.190Z,6.50
2022-10-20T01:39:56.078Z,6.48
2022-10-20T01:40:56.090Z,6.47
2022-10-20T01:41:56.131Z,6.44
2022-10-20T01:42:56.034Z,6.43
2022-10-20T01:43:56.120Z,6.41
2022-10-20T01:44:56.019Z,6.40
2022-10-20T01:47:06.227Z,6.35
2022-10-20T01:48:06.274Z,6.32
2022-10-20T01:49:06.192Z,6.30
2022-10-20T01:50:06.178Z,6.29
2022-10-20T01:51:06.194Z,6.28
2022-10-20T01:52:06.234Z,6.26
2022-10-20T01:53:06.134Z,6.25
2022-10-20T01:54:06.215Z,6.21
2022-10-20T01:55:06.224Z,6.19
2022-10-20T01:56:06.116Z,6.16
2022-10-20T01:57:06.096Z,6.16
2022-10-20T01:58:06.136Z,6.18
2022-10-20T01:59:06.065Z,6.14
2022-10-20T02:00:06.154Z,6.13
2022-10-20T02:01:06.058Z,6.10
2022-10-20T02:02:06.101Z,6.07
2022-10-20T02:03:06.077Z,6.06
2022-10-20T02:04:06.004Z,6.07
2022-10-20T02:05:05.975Z,6.09
2022-10-20T02:06:06.005Z,6.07
2022-10-20T02:07:06.026Z,6.06
2022-10-20T02:08:07.025Z,6.03
2022-10-20T02:09:05.936Z,6.00
2022-10-20T02:10:06.037Z,5.98
2022-10-20T02:11:05.928Z,5.98
2022-10-20T02:12:05.966Z,5.95
2022-10-20T02:13:05.936Z,5.93
2022-10-20T02:14:05.868Z,5.89
2022-10-20T02:15:05.851Z,5.88
2022-10-20T02:16:05.858Z,5.85
2022-10-20T02:17:05.898Z,5.85
2022-10-20T02:18:05.867Z,5.83
2022-10-20T02:19:05.868Z,5.83
2022-10-20T02:20:05.892Z,5.83
2022-10-20T02:21:05.787Z,5.82
2022-10-20T02:22:05.830Z,5.81
2022-10-20T02:23:05.748Z,5.78
2022-10-20T02:24:05.749Z,5.81
2022-10-20T02:25:05.828Z,5.81
2022-10-20T02:26:05.817Z,5.75
2022-10-20T02:27:05.755Z,5.75
2022-10-20T02:28:05.691Z,5.75
2022-10-20T02:29:05.756Z,5.75
2022-10-20T02:30:05.755Z,5.77
2022-10-20T02:31:05.647Z,5.77
2022-10-20T02:32:05.648Z,5.78
2022-10-20T02:33:05.659Z,5.77
2022-10-20T02:34:05.615Z,5.78
2022-10-20T02:35:06.780Z,5.77
2022-10-20T02:36:05.689Z,5.75
2022-10-20T02:37:05.643Z,5.75
2022-10-20T02:38:05.568Z,5.75
2022-10-20T02:40:15.808Z,5.74
2022-10-20T02:41:40.038Z,5.73
2022-10-20T02:42:15.789Z,5.74
2022-10-20T02:43:15.770Z,5.75
2022-10-20T02:45:25.985Z,5.75
2022-10-20T02:46:30.256Z,5.73
2022-10-20T02:47:25.963Z,5.73
2022-10-20T02:48:34.472Z,5.70
2022-10-20T02:49:33.440Z,5.66
2022-10-20T02:50:25.920Z,5.66
2022-10-20T02:51:34.599Z,5.66
2022-10-20T02:52:25.894Z,5.64
2022-10-20T02:53:34.394Z,5.60
2022-10-20T02:54:33.387Z,5.59
2022-10-20T02:55:33.352Z,5.57
2022-10-20T02:56:28.900Z,5.57
2022-10-20T02:57:34.802Z,5.55
2022-10-20T02:58:34.334Z,5.53
2022-10-20T02:59:25.802Z,5.55
2022-10-20T03:01:35.064Z,5.55
2022-10-20T03:02:42.456Z,5.52
2022-10-20T03:03:42.462Z,5.55
2022-10-20T03:04:42.436Z,5.55
2022-10-20T03:05:42.427Z,5.56
2022-10-20T03:06:35.014Z,5.57
2022-10-20T03:07:35.422Z,5.56
2022-10-20T03:08:34.894Z,5.55
2022-10-20T03:09:34.876Z,5.57
2022-10-20T03:10:34.906Z,5.59
2022-10-20T03:11:34.943Z,5.57
2022-10-20T03:12:34.932Z,5.60
2022-10-20T03:13:34.827Z,5.60
2022-10-20T03:14:35.847Z,5.64
2022-10-20T03:15:34.849Z,5.63
2022-10-20T03:16:34.786Z,5.63
2022-10-20T03:17:36.232Z,5.60
2022-10-20T03:18:34.864Z,5.64
2022-10-20T03:19:34.766Z,5.64
2022-10-20T03:20:34.766Z,5.64
2022-10-20T03:21:34.809Z,5.64
2022-10-20T03:22:34.788Z,5.64
2022-10-20T03:23:35.714Z,5.60
2022-10-20T03:24:34.700Z,5.60
2022-10-20T03:25:34.727Z,5.60
2022-10-20T03:26:34.737Z,5.57
2022-10-20T03:27:35.166Z,5.56
2022-10-20T03:28:34.627Z,5.55
2022-10-20T03:29:34.622Z,5.55
2022-10-20T03:30:34.638Z,5.53
2022-10-20T03:31:34.794Z,5.53
2022-10-20T03:32:34.824Z,5.52
2022-10-20T03:33:34.647Z,5.52
2022-10-20T03:34:35.607Z,5.52
2022-10-20T03:35:34.562Z,5.49
2022-10-20T03:36:34.607Z,5.46
2022-10-20T03:37:34.588Z,5.45
2022-10-20T03:38:34.589Z,5.41
2022-10-20T03:39:34.705Z,5.40
2022-10-20T03:40:34.495Z,5.38
2022-10-20T03:41:34.561Z,5.37
2022-10-20T03:42:34.908Z,5.35
2022-10-20T03:43:34.454Z,5.34
2022-10-20T03:44:34.459Z,5.34
2022-10-20T03:45:34.430Z,5.31
2022-10-20T03:46:34.427Z,5.32
2022-10-20T03:47:34.404Z,5.31
2022-10-20T03:48:34.380Z,5.41
2022-10-20T03:49:34.462Z,5.43
2022-10-20T04:02:49.001Z,5.86
2022-10-20T04:03:48.971Z,5.91
2022-10-20T04:04:48.971Z,5.92
2022-10-20T04:05:48.952Z,5.92
2022-10-20T04:06:48.962Z,5.95
2022-10-20T04:07:48.932Z,6.06
2022-10-20T04:08:49.001Z,6.11
2022-10-20T04:09:48.902Z,6.21
2022-10-20T04:10:48.903Z,6.26
2022-10-20T04:11:49.911Z,6.26
2022-10-20T04:12:48.872Z,6.41
2022-10-20T04:13:48.865Z,6.63
2022-10-20T04:14:48.843Z,6.83
2022-10-20T04:15:48.832Z,6.98
2022-10-20T04:16:48.833Z,7.13
2022-10-20T04:17:49.793Z,7.31
2022-10-20T04:18:48.802Z,7.38
2022-10-20T04:19:48.782Z,7.35
2022-10-20T04:20:49.763Z,7.29
2022-10-20T04:21:49.762Z,7.16
2022-10-20T04:22:48.763Z,7.01
2022-10-20T04:23:48.723Z,6.86
2022-10-20T04:24:48.724Z,6.72
2022-10-20T04:25:48.716Z,6.62
2022-10-20T04:27:48.681Z,6.36
2022-10-20T04:28:48.667Z,6.26
2022-10-20T04:29:48.653Z,6.14
2022-10-20T04:30:48.647Z,6.07
2022-10-20T04:31:49.278Z,6.03
2022-10-20T04:32:48.614Z,6.00
2022-10-20T04:33:48.614Z,5.96
2022-10-20T04:34:48.595Z,5.92
2022-10-20T04:36:48.565Z,5.93
2022-10-20T04:37:48.559Z,6.06
2022-10-20T04:38:48.535Z,6.25
2022-10-20T04:39:48.518Z,6.41
2022-10-20T04:40:48.506Z,6.51
2022-10-20T04:41:48.510Z,6.51
2022-10-20T04:42:48.505Z,6.47
2022-10-20T04:43:48.481Z,6.46
2022-10-20T04:44:48.547Z,6.40
2022-10-20T04:45:48.446Z,6.32
2022-10-20T04:46:48.449Z,6.29
2022-10-20T04:47:48.415Z,6.22
2022-10-20T04:48:48.417Z,6.14
2022-10-20T04:49:48.388Z,6.06
2022-10-20T04:50:48.398Z,6.00
2022-10-20T04:51:48.383Z,5.93
2022-10-20T04:52:48.356Z,5.83
2022-10-20T04:53:49.337Z,5.81
2022-10-20T04:54:48.327Z,5.81
2022-10-20T04:55:48.328Z,5.75
2022-10-20T04:56:48.315Z,5.73
2022-10-20T04:57:48.288Z,5.70
2022-10-20T04:58:49.279Z,5.67
2022-10-20T04:59:48.275Z,5.60
2022-10-20T05:00:48.258Z,5.63
2022-10-20T05:01:48.428Z,5.59
2022-10-20T05:02:48.229Z,5.64
2022-10-20T05:03:48.218Z,5.75
2022-10-20T05:04:48.197Z,5.86
2022-10-20T05:05:48.190Z,6.11
2022-10-20T05:06:48.192Z,6.33
2022-10-20T05:07:48.158Z,6.61
2022-10-20T05:08:48.196Z,6.80
2022-10-20T05:09:48.139Z,6.83
2022-10-20T05:10:48.129Z,6.76
2022-10-20T05:11:48.120Z,6.72
2022-10-20T05:12:48.102Z,6.65
2022-10-20T05:13:48.086Z,6.58
2022-10-20T05:14:48.090Z,6.53
2022-10-20T05:15:48.060Z,6.38
2022-10-20T05:16:48.070Z,6.36
2022-10-20T05:17:48.039Z,6.38
2022-10-20T05:18:48.020Z,6.47
2022-10-20T05:19:48.010Z,6.66
2022-10-20T05:21:10.225Z,6.81
2022-10-20T05:21:48.992Z,6.97
2022-10-20T05:22:47.984Z,7.05
2022-10-20T05:23:47.969Z,7.13
2022-10-20T05:24:47.961Z,7.31
2022-10-20T05:25:47.935Z,7.23
2022-10-20T05:26:47.934Z,7.22
2022-10-20T05:27:47.915Z,7.23
2022-10-20T05:28:47.919Z,7.23
2022-10-20T05:29:47.912Z,7.15
2022-10-20T05:30:47.872Z,7.12
2022-10-20T05:31:47.872Z,7.02
2022-10-20T05:32:47.844Z,6.94
2022-10-20T05:33:47.834Z,6.89
2022-10-20T05:34:48.811Z,6.84
2022-10-20T05:35:47.802Z,6.83
2022-10-20T05:36:47.804Z,6.81
2022-10-20T05:37:47.780Z,6.83
2022-10-20T05:38:47.773Z,6.89
2022-10-20T05:40:47.753Z,6.80
2022-10-20T05:41:47.732Z,6.71
2022-10-20T05:42:47.714Z,6.56
2022-10-20T05:43:47.702Z,6.50
2022-10-20T05:44:48.684Z,6.51
2022-10-20T05:45:47.673Z,6.46
2022-10-20T05:46:47.673Z,6.36
2022-10-20T05:47:47.642Z,6.30
2022-10-20T05:48:47.655Z,6.28
2022-10-20T05:49:47.626Z,6.21
2022-10-20T05:50:47.630Z,6.18
2022-10-20T05:51:47.606Z,6.13
2022-10-20T05:52:47.583Z,6.09
2022-10-20T05:53:47.571Z,6.03
2022-10-20T05:54:47.571Z,5.96
2022-10-20T05:55:47.555Z,5.92
2022-10-20T05:56:47.547Z,5.91
2022-10-20T05:57:47.525Z,5.95
2022-10-20T05:58:47.533Z,6.06
2022-10-20T05:59:47.505Z,6.14
2022-10-20T06:00:47.485Z,6.28
2022-10-20T06:01:47.562Z,6.32
2022-10-20T06:02:47.470Z,6.36
2022-10-20T06:03:47.454Z,6.53
2022-10-20T06:04:47.438Z,6.66
2022-10-20T06:05:47.426Z,6.66
2022-10-20T06:06:47.418Z,6.68
2022-10-20T06:07:47.394Z,6.61
2022-10-20T06:08:47.423Z,6.53
2022-10-20T06:09:47.374Z,6.44
2022-10-20T06:10:47.356Z,6.36
2022-10-20T06:11:47.370Z,6.29
2022-10-20T06:12:47.338Z,6.19
2022-10-20T06:13:50.107Z,6.16
2022-10-20T06:14:48.306Z,6.18
2022-10-20T06:15:47.296Z,6.18
2022-10-20T06:16:47.358Z,6.25
2022-10-20T06:17:47.277Z,6.30
2022-10-20T06:18:47.269Z,6.35
2022-10-20T06:19:47.247Z,6.41
2022-10-20T06:20:48.231Z,6.53
2022-10-20T06:21:48.934Z,6.63
2022-10-20T06:22:47.208Z,6.61
2022-10-20T06:23:47.198Z,6.68
2022-10-20T06:24:47.178Z,6.76
2022-10-20T06:25:48.157Z,6.81
2022-10-20T06:26:47.161Z,6.83
2022-10-20T06:27:47.128Z,6.81
2022-10-20T06:28:47.128Z,6.80
2022-10-20T06:29:47.118Z,6.77
2022-10-20T06:30:48.096Z,6.72
2022-10-20T06:31:47.155Z,6.72
2022-10-20T06:32:47.078Z,6.72
2022-10-20T06:33:47.060Z,6.68
2022-10-20T06:34:47.078Z,6.69
2022-10-20T06:35:47.037Z,6.79
2022-10-20T06:36:47.080Z,6.84
2022-10-20T06:37:47.029Z,6.91
2022-10-20T06:38:46.998Z,7.04
2022-10-20T06:39:46.990Z,7.29
2022-10-20T06:40:46.983Z,7.55
2022-10-20T06:41:46.970Z,7.69
2022-10-20T06:42:46.993Z,7.74
2022-10-20T06:43:46.931Z,7.79
2022-10-20T06:44:46.920Z,7.78
2022-10-20T06:45:46.900Z,7.67
2022-10-20T06:46:46.891Z,7.67
2022-10-20T06:47:46.912Z,7.67
2022-10-20T06:48:46.880Z,7.69
2022-10-20T06:49:46.850Z,7.69
2022-10-20T06:50:46.850Z,7.74
2022-10-20T06:51:46.840Z,7.78
2022-10-20T06:52:46.812Z,7.82
2022-10-20T06:53:46.985Z,7.87
2022-10-20T06:54:46.805Z,7.82
2022-10-20T06:55:46.772Z,7.79
2022-10-20T06:56:46.772Z,7.79
2022-10-20T06:57:46.753Z,7.77
2022-10-20T06:58:46.739Z,7.72
2022-10-20T06:59:46.738Z,7.67
2022-10-20T07:00:46.723Z,7.62
2022-10-20T07:01:46.746Z,7.56
2022-10-20T07:02:46.702Z,7.56
2022-10-20T07:03:46.675Z,7.55
2022-10-20T07:04:46.676Z,7.56
2022-10-20T07:05:46.657Z,7.59
2022-10-20T07:06:46.642Z,7.62
2022-10-20T07:07:46.633Z,7.77
2022-10-20T07:08:46.727Z,7.87
2022-10-20T07:09:46.593Z,7.94
2022-10-20T07:10:46.591Z,8.03
2022-10-20T07:11:46.619Z,8.20
2022-10-20T07:12:46.557Z,8.30
2022-10-20T07:13:46.555Z,8.36
2022-10-20T07:14:46.528Z,8.39
2022-10-20T07:15:46.526Z,8.50
2022-10-20T07:16:46.534Z,8.66
2022-10-20T07:17:46.504Z,8.81
2022-10-20T07:18:46.498Z,8.93
2022-10-20T07:19:46.473Z,9.12
2022-10-20T07:20:46.470Z,9.30
2022-10-20T07:21:46.444Z,9.43
2022-10-20T07:22:46.426Z,9.45
2022-10-20T07:23:46.446Z,9.46
2022-10-20T07:24:46.415Z,9.49
2022-10-20T07:25:46.386Z,9.48
2022-10-20T07:26:46.395Z,9.49
2022-10-20T07:27:46.368Z,9.52
2022-10-20T07:28:46.346Z,9.61
2022-10-20T07:29:46.347Z,9.64
2022-10-20T07:30:46.336Z,9.68
2022-10-20T07:31:46.318Z,9.75
2022-10-20T07:32:46.307Z,9.82
2022-10-20T07:34:00.925Z,9.86
2022-10-20T07:34:47.317Z,9.86
2022-10-20T07:35:46.266Z,9.91
2022-10-20T07:36:46.255Z,9.99
2022-10-20T07:37:46.235Z,10.03
2022-10-20T07:38:46.233Z,10.09
2022-10-20T07:39:46.198Z,10.10
2022-10-20T07:40:46.197Z,10.18
2022-10-20T07:41:46.188Z,10.24
2022-10-20T07:42:46.168Z,10.33
2022-10-20T07:43:46.166Z,10.39
2022-10-20T07:44:46.157Z,10.39
2022-10-20T07:45:46.121Z,10.43
2022-10-20T07:46:46.135Z,10.52
2022-10-20T07:47:47.675Z,10.58
2022-10-20T07:48:46.098Z,10.71
2022-10-20T07:49:46.084Z,10.81
2022-10-20T07:50:46.059Z,10.91
2022-10-20T07:51:46.058Z,10.98
2022-10-20T07:52:46.050Z,11.06
2022-10-20T07:53:46.033Z,11.11
2022-10-20T07:54:46.020Z,11.20
2022-10-20T07:55:45.996Z,11.27
2022-10-20T07:56:45.999Z,11.31
2022-10-20T07:57:45.970Z,11.31
2022-10-20T07:58:45.959Z,11.29
2022-10-20T07:59:45.948Z,11.28
2022-10-20T08:00:45.936Z,11.29
2022-10-20T08:01:45.991Z,11.38
2022-10-20T08:02:45.923Z,11.43
2022-10-20T08:03:45.901Z,11.47
2022-10-20T08:04:45.983Z,11.47
2022-10-20T08:05:45.889Z,11.53
2022-10-20T08:06:45.898Z,11.53
2022-10-20T08:07:45.843Z,11.52
2022-10-20T08:08:45.878Z,11.50
2022-10-20T08:10:45.806Z,11.53
2022-10-20T08:11:45.791Z,11.53
2022-10-20T08:12:45.781Z,11.59
2022-10-20T08:13:45.768Z,11.70
2022-10-20T08:14:45.821Z,11.80
2022-10-20T08:15:45.799Z,11.96
2022-10-20T08:16:49.513Z,12.08
2022-10-20T08:17:45.721Z,12.19
2022-10-20T08:18:48.661Z,12.27
2022-10-20T08:19:50.715Z,12.33
2022-10-20T08:20:45.707Z,12.42
2022-10-20T08:21:45.673Z,12.51
2022-10-20T08:22:46.646Z,12.62
2022-10-20T08:23:45.644Z,12.75
2022-10-20T08:24:45.671Z,12.87
2022-10-20T08:25:45.615Z,12.97
2022-10-20T08:26:46.614Z,13.04
2022-10-20T08:27:45.675Z,13.12
2022-10-20T08:28:45.583Z,13.15
2022-10-20T08:29:50.951Z,13.20
2022-10-20T08:30:46.546Z,13.18
2022-10-20T08:31:46.540Z,13.17
2022-10-20T08:32:45.514Z,13.15
2022-10-20T08:33:50.063Z,13.17
2022-10-20T08:34:46.486Z,13.14
2022-10-20T08:35:45.486Z,13.12
2022-10-20T08:36:45.495Z,13.14
2022-10-20T08:37:45.457Z,13.17
2022-10-20T08:38:45.428Z,13.25
2022-10-20T08:39:45.427Z,13.38
2022-10-20T08:40:45.409Z,13.47
2022-10-20T08:42:46.386Z,13.74
2022-10-20T08:43:45.386Z,13.84
2022-10-20T08:44:45.381Z,13.98
2022-10-20T08:45:45.369Z,13.99
2022-10-20T08:46:45.344Z,14.01
2022-10-20T08:47:45.330Z,14.13
2022-10-20T08:48:45.326Z,14.20
2022-10-20T08:49:45.316Z,14.54
2022-10-20T08:50:45.281Z,15.11
2022-10-20T08:51:45.303Z,15.68
2022-10-20T08:52:45.272Z,16.45
2022-10-20T08:53:45.260Z,17.29
2022-10-20T08:54:45.256Z,18.12
2022-10-20T08:55:45.230Z,18.84
2022-10-20T08:56:45.235Z,19.40
2022-10-20T08:57:45.202Z,19.95
2022-10-20T08:58:45.190Z,20.53
2022-10-20T08:59:45.181Z,21.09
2022-10-20T09:00:45.171Z,21.64
2022-10-20T09:01:45.222Z,21.99
2022-10-20T09:02:45.140Z,22.04
2022-10-20T09:03:46.131Z,22.31
2022-10-20T09:04:45.114Z,22.64
2022-10-20T09:05:45.112Z,22.69
2022-10-20T09:06:45.124Z,22.97
2022-10-20T09:07:45.086Z,23.19
2022-10-20T09:08:45.105Z,23.14
2022-10-20T09:09:45.060Z,23.15
2022-10-20T09:10:45.044Z,23.32
2022-10-20T09:11:45.051Z,23.57
2022-10-20T09:12:45.013Z,23.45
2022-10-20T09:13:45.025Z,22.99
2022-10-20T09:14:44.997Z,22.64
2022-10-20T09:15:44.981Z,22.78
2022-10-20T09:16:59.297Z,22.65
2022-10-20T09:17:45.955Z,22.28
2022-10-20T09:18:44.936Z,22.22
2022-10-20T09:19:45.929Z,22.49
2022-10-20T09:20:44.904Z,22.59
2022-10-20T09:21:44.914Z,22.62
2022-10-20T09:22:44.892Z,22.54
2022-10-20T09:23:44.918Z,22.19
2022-10-20T09:24:44.857Z,22.01
2022-10-20T09:25:44.846Z,21.95
2022-10-20T09:26:58.248Z,21.95
2022-10-20T09:27:45.816Z,21.91
2022-10-20T09:29:08.656Z,21.94
2022-10-20T09:29:45.799Z,22.07
2022-10-20T09:30:44.778Z,22.19
2022-10-20T09:31:44.769Z,22.37
2022-10-20T09:32:47.328Z,22.35
2022-10-20T09:33:45.748Z,22.22
2022-10-20T09:34:44.729Z,22.14
2022-10-20T09:35:44.719Z,22.02
2022-10-20T09:36:44.725Z,21.97
2022-10-20T09:37:44.689Z,21.66
2022-10-20T09:38:44.678Z,21.59
2022-10-20T09:39:45.667Z,21.30
2022-10-20T09:40:44.650Z,20.72
2022-10-20T09:41:44.652Z,20.20
2022-10-20T09:42:44.624Z,19.76
2022-10-20T09:43:44.626Z,19.36
2022-10-20T09:44:45.601Z,19.05
2022-10-20T09:45:44.599Z,18.74
2022-10-20T09:46:44.591Z,18.34
2022-10-20T10:03:20.116Z,18.73
2022-10-20T10:04:20.087Z,19.31
2022-10-20T10:05:21.093Z,19.93
2022-10-20T10:06:20.071Z,20.46
2022-10-20T10:07:20.082Z,21.02
2022-10-20T10:08:20.056Z,21.74
2022-10-20T10:09:20.058Z,22.47
2022-10-20T10:10:20.054Z,23.05
2022-10-20T10:11:19.993Z,23.61
2022-10-20T10:12:19.992Z,24.14
2022-10-20T10:13:22.493Z,24.77
2022-10-20T10:14:19.960Z,25.54
2022-10-20T10:15:19.939Z,25.97
2022-10-20T10:16:19.939Z,26.47
2022-10-20T10:17:19.952Z,26.86
2022-10-20T10:18:19.912Z,27.04
2022-10-20T10:19:19.900Z,26.62
2022-10-20T10:20:19.882Z,26.74
2022-10-20T10:21:19.875Z,27.11
2022-10-20T10:22:19.881Z,27.16
2022-10-20T10:23:19.844Z,27.32
2022-10-20T10:24:19.841Z,27.58
2022-10-20T10:25:19.811Z,27.46
2022-10-20T10:26:19.816Z,27.28
2022-10-20T10:27:19.812Z,26.74
2022-10-20T10:28:19.814Z,26.39
2022-10-20T10:29:19.764Z,25.91
2022-10-20T10:30:19.776Z,25.35
2022-10-20T10:31:19.750Z,24.59
2022-10-20T10:32:19.744Z,23.80
2022-10-20T10:33:19.716Z,22.97
2022-10-20T10:34:19.717Z,22.65
2022-10-20T10:35:19.693Z,22.41
2022-10-20T10:36:19.685Z,22.22
2022-10-20T10:38:19.646Z,21.54
2022-10-20T10:39:19.647Z,21.32
2022-10-20T10:40:19.636Z,21.24
2022-10-20T10:41:19.608Z,21.36
2022-10-20T10:42:19.617Z,21.42
2022-10-20T10:43:19.579Z,21.63
2022-10-20T10:44:19.587Z,21.57
2022-10-20T10:45:19.574Z,21.38
2022-10-20T10:46:19.558Z,21.29
2022-10-20T10:47:19.556Z,21.66
2022-10-20T10:48:19.520Z,22.28
2022-10-20T10:49:19.514Z,22.82
2022-10-20T10:50:19.490Z,23.40
2022-10-20T10:51:19.491Z,23.35
2022-10-20T10:52:19.479Z,23.20
2022-10-20T10:53:19.450Z,23.07
2022-10-20T10:54:19.450Z,23.12
2022-10-20T10:55:43.817Z,23.46
2022-10-20T10:56:20.422Z,23.46
2022-10-20T10:57:19.411Z,23.23
2022-10-20T10:58:19.407Z,23.26
2022-10-20T10:59:19.382Z,23.12
2022-10-20T11:00:19.374Z,23.27
2022-10-20T11:01:19.440Z,23.53
2022-10-20T11:02:19.360Z,24.12
2022-10-20T11:03:19.343Z,24.61
2022-10-20T11:04:19.322Z,24.71
2022-10-20T11:05:19.297Z,24.87
2022-10-20T11:06:19.297Z,24.79
2022-10-20T11:07:19.299Z,25.38
2022-10-20T11:08:19.274Z,26.11
2022-10-20T11:09:19.537Z,26.80
2022-10-20T11:10:19.245Z,27.36
2022-10-20T11:11:19.234Z,27.47
2022-10-20T11:12:19.226Z,27.58
2022-10-20T11:13:22.965Z,27.89
2022-10-20T11:15:19.177Z,27.82
2022-10-20T11:16:19.167Z,27.89
2022-10-20T11:17:19.194Z,26.98
2022-10-20T11:18:19.158Z,26.02
2022-10-20T11:19:19.127Z,25.47
2022-10-20T11:20:19.110Z,24.91
2022-10-20T11:21:19.097Z,24.45
2022-10-20T11:22:19.100Z,24.20
2022-10-20T11:23:19.083Z,24.08
2022-10-20T11:24:19.097Z,24.26
2022-10-20T11:25:19.062Z,24.54
2022-10-20T11:26:19.058Z,24.87
2022-10-20T11:27:19.061Z,25.19
2022-10-20T11:28:19.031Z,25.39
2022-10-20T11:29:18.990Z,25.65
2022-10-20T11:30:18.991Z,25.89
2022-10-20T11:31:18.972Z,26.04
2022-10-20T11:32:18.982Z,25.94
2022-10-20T11:33:18.955Z,25.61
2022-10-20T11:34:18.942Z,25.46
2022-10-20T11:35:18.923Z,25.27
2022-10-20T11:36:18.913Z,25.34
2022-10-20T11:37:18.919Z,25.02
2022-10-20T11:38:18.893Z,24.75
2022-10-20T11:39:18.875Z,24.50
2022-10-20T11:40:18.864Z,24.13
2022-10-20T11:41:18.846Z,23.94
2022-10-20T11:42:18.858Z,23.85
2022-10-20T11:43:18.844Z,23.71
2022-10-20T11:44:18.816Z,23.60
2022-10-20T11:45:18.799Z,23.60
2022-10-20T11:46:18.796Z,23.57
2022-10-20T11:47:18.786Z,23.82
2022-10-20T11:48:19.777Z,24.07
2022-10-20T11:49:18.751Z,24.53
2022-10-20T11:50:18.757Z,24.64
2022-10-20T11:51:18.745Z,24.24
2022-10-20T11:52:18.716Z,23.68
2022-10-20T11:53:18.712Z,23.45
2022-10-20T11:54:18.711Z,23.26
2022-10-20T11:55:18.688Z,23.40
2022-10-20T11:56:18.694Z,23.87
2022-10-20T11:57:18.669Z,24.26
2022-10-20T11:58:19.654Z,24.94
2022-10-20T11:59:18.625Z,25.71
2022-10-20T12:01:18.632Z,27.09
2022-10-20T12:02:18.618Z,27.64
2022-10-20T12:03:18.582Z,28.16
2022-10-20T12:04:18.572Z,28.70
2022-10-20T12:05:18.556Z,29.22
2022-10-20T12:06:18.562Z,29.72
2022-10-20T12:07:18.577Z,29.75
2022-10-20T12:08:29.425Z,29.75
2022-10-20T12:09:19.597Z,29.96
2022-10-20T12:10:18.515Z,30.23
2022-10-20T12:11:18.483Z,30.47
2022-10-20T12:12:18.490Z,30.45
2022-10-20T12:13:18.455Z,30.40
2022-10-20T12:14:19.445Z,30.45
2022-10-20T12:15:19.785Z,30.37
2022-10-20T12:16:18.420Z,29.74
2022-10-20T12:17:18.430Z,29.25
2022-10-20T12:18:18.399Z,28.96
2022-10-20T12:19:18.397Z,28.43
2022-10-20T12:20:18.367Z,27.89
2022-10-20T12:21:18.380Z,28.09
2022-10-20T12:22:18.368Z,28.10
2022-10-20T12:23:18.347Z,27.89
2022-10-20T12:24:18.331Z,27.33
2022-10-20T12:25:18.325Z,26.81
2022-10-20T12:26:18.301Z,26.55
2022-10-20T12:27:18.289Z,25.72
2022-10-20T12:28:18.271Z,25.00
2022-10-20T12:29:18.279Z,24.23
2022-10-20T12:30:18.251Z,23.35
2022-10-20T12:31:18.251Z,22.49
2022-10-20T12:32:18.221Z,21.94
2022-10-20T12:33:18.246Z,21.50
2022-10-20T12:34:18.208Z,21.30
2022-10-20T12:35:18.206Z,21.06
2022-10-20T12:36:18.183Z,20.86
2022-10-20T12:37:18.214Z,20.74
2022-10-20T12:38:18.148Z,20.61
2022-10-20T12:39:18.143Z,20.43
2022-10-20T12:40:19.113Z,20.23
2022-10-20T12:41:18.134Z,20.05
2022-10-20T12:42:18.112Z,19.93
2022-10-20T12:43:18.095Z,19.80
2022-10-20T12:44:18.068Z,19.83
2022-10-20T12:45:19.073Z,19.93
2022-10-20T12:46:21.071Z,20.10
2022-10-20T12:47:18.041Z,20.27
2022-10-20T12:48:18.014Z,20.30
2022-10-20T12:49:18.017Z,20.35
2022-10-20T12:50:17.996Z,20.54
2022-10-20T12:51:17.980Z,20.65
2022-10-20T12:52:18.021Z,20.79
2022-10-20T12:53:17.974Z,20.90
2022-10-20T12:54:17.952Z,21.01
2022-10-20T12:55:17.987Z,21.17
2022-10-20T12:56:17.961Z,21.26
2022-10-20T12:57:17.911Z,21.27
2022-10-20T12:58:17.904Z,21.20
2022-10-20T12:59:17.886Z,21.35
2022-10-20T13:00:17.862Z,21.57
2022-10-20T13:01:17.959Z,21.72
2022-10-20T13:02:17.854Z,21.97
2022-10-20T13:03:18.446Z,22.22
2022-10-20T13:04:17.863Z,21.94
2022-10-20T13:05:17.802Z,21.61
2022-10-20T13:06:17.794Z,21.34
2022-10-20T13:07:17.792Z,21.08
2022-10-20T13:08:17.762Z,20.93
2022-10-20T13:09:17.753Z,20.86
2022-10-20T13:10:17.828Z,20.86
2022-10-20T13:11:18.738Z,20.77
2022-10-20T13:12:17.753Z,20.68
2022-10-20T13:13:17.716Z,20.61
2022-10-20T13:14:17.685Z,20.61
2022-10-20T13:15:17.703Z,20.61
2022-10-20T13:16:18.675Z,20.58
2022-10-20T13:17:17.697Z,20.58
2022-10-20T13:18:17.654Z,20.53
2022-10-20T13:19:17.632Z,20.47
2022-10-20T13:20:17.607Z,20.49
2022-10-20T13:21:18.596Z,20.50
2022-10-20T13:22:17.599Z,20.53
2022-10-20T13:23:17.594Z,20.51
2022-10-20T13:24:17.549Z,20.43
2022-10-20T13:25:17.548Z,20.41
2022-10-20T13:26:18.538Z,20.38
2022-10-20T13:27:17.540Z,20.46
2022-10-20T13:28:17.510Z,20.43
2022-10-20T13:29:17.488Z,20.34
2022-10-20T13:30:17.481Z,20.33
2022-10-20T13:31:17.471Z,20.34
2022-10-20T13:32:17.470Z,20.34
2022-10-20T13:33:33.881Z,20.31
2022-10-20T13:34:18.430Z,20.23
2022-10-20T13:35:17.422Z,19.88
2022-10-20T13:36:18.392Z,19.75
2022-10-20T13:37:22.368Z,19.58
2022-10-20T13:38:18.383Z,19.51
2022-10-20T13:39:17.365Z,19.47
2022-10-20T13:40:22.632Z,19.38
2022-10-20T13:41:18.343Z,19.28
2022-10-20T13:42:17.335Z,19.17
2022-10-20T13:43:17.313Z,19.10
2022-10-20T13:44:18.734Z,18.95
2022-10-20T13:45:17.295Z,18.77
2022-10-20T13:46:17.306Z,18.65
2022-10-20T13:47:17.271Z,18.55
2022-10-20T13:48:17.244Z,18.54
2022-10-20T13:49:17.248Z,18.47
2022-10-20T13:51:19.877Z,18.39